sensor_id;sensor_type;location;lat;lon;timestamp;P1;durP1;ratioP1;P2;durP2;ratioP2
20245;SDS011;10281;54.406;18.556;2023-02-28T00:01:14;93.40;;;44.77;;
20245;SDS011;10281;54.406;18.556;2023-02-28T00:03:41;92.73;;;45.50;;
20245;SDS011;10281;54.406;18.556;2023-02-28T00:06:08;92.73;;;42.87;;
20245;SDS011;10281;54.406;18.556;2023-02-28T00:08:36;86.93;;;42.00;;
20245;SDS011;10281;54.406;18.556;2023-02-28T00:11:03;88.37;;;44.33;;
20245;SDS011;10281;54.406;18.556;2023-02-28T00:13:31;89.70;;;43.83;;
20245;SDS011;10281;54.406;18.556;2023-02-28T00:15:59;90.17;;;45.80;;
20245;SDS011;10281;54.406;18.556;2023-02-28T00:18:26;112.20;;;55.90;;
20245;SDS011;10281;54.406;18.556;2023-02-28T00:20:53;96.23;;;47.43;;
20245;SDS011;10281;54.406;18.556;2023-02-28T00:23:19;92.20;;;43.57;;
20245;SDS011;10281;54.406;18.556;2023-02-28T00:25:46;89.13;;;44.43;;
20245;SDS011;10281;54.406;18.556;2023-02-28T00:28:13;88.47;;;45.83;;
20245;SDS011;10281;54.406;18.556;2023-02-28T00:30:39;95.07;;;44.10;;
20245;SDS011;10281;54.406;18.556;2023-02-28T00:33:06;87.17;;;42.47;;
20245;SDS011;10281;54.406;18.556;2023-02-28T00:35:32;88.53;;;43.80;;
20245;SDS011;10281;54.406;18.556;2023-02-28T00:37:59;91.70;;;44.50;;
20245;SDS011;10281;54.406;18.556;2023-02-28T00:40:26;90.33;;;44.43;;
20245;SDS011;10281;54.406;18.556;2023-02-28T00:42:53;96.07;;;47.03;;
20245;SDS011;10281;54.406;18.556;2023-02-28T00:45:20;81.37;;;40.77;;
20245;SDS011;10281;54.406;18.556;2023-02-28T00:47:47;92.07;;;40.20;;
20245;SDS011;10281;54.406;18.556;2023-02-28T00:50:17;89.93;;;41.40;;
20245;SDS011;10281;54.406;18.556;2023-02-28T00:52:44;85.83;;;41.60;;
20245;SDS011;10281;54.406;18.556;2023-02-28T00:55:10;85.37;;;40.23;;
20245;SDS011;10281;54.406;18.556;2023-02-28T00:57:37;88.67;;;43.53;;
20245;SDS011;10281;54.406;18.556;2023-02-28T01:00:05;88.57;;;42.07;;
20245;SDS011;10281;54.406;18.556;2023-02-28T01:02:31;85.20;;;41.07;;
20245;SDS011;10281;54.406;18.556;2023-02-28T01:04:58;84.63;;;42.53;;
20245;SDS011;10281;54.406;18.556;2023-02-28T01:07:25;85.37;;;42.50;;
20245;SDS011;10281;54.406;18.556;2023-02-28T01:09:52;81.27;;;40.97;;
20245;SDS011;10281;54.406;18.556;2023-02-28T01:12:18;81.27;;;39.23;;
20245;SDS011;10281;54.406;18.556;2023-02-28T01:14:45;87.13;;;42.43;;
20245;SDS011;10281;54.406;18.556;2023-02-28T01:17:12;94.70;;;41.97;;
20245;SDS011;10281;54.406;18.556;2023-02-28T01:19:38;80.03;;;38.97;;
20245;SDS011;10281;54.406;18.556;2023-02-28T01:22:05;81.87;;;37.70;;
20245;SDS011;10281;54.406;18.556;2023-02-28T01:24:32;78.00;;;37.57;;
20245;SDS011;10281;54.406;18.556;2023-02-28T01:26:59;83.90;;;38.83;;
20245;SDS011;10281;54.406;18.556;2023-02-28T01:29:26;83.17;;;38.30;;
20245;SDS011;10281;54.406;18.556;2023-02-28T01:31:53;79.83;;;36.73;;
20245;SDS011;10281;54.406;18.556;2023-02-28T01:34:19;77.50;;;35.17;;
20245;SDS011;10281;54.406;18.556;2023-02-28T01:36:46;79.57;;;38.70;;
20245;SDS011;10281;54.406;18.556;2023-02-28T01:39:13;75.33;;;39.33;;
20245;SDS011;10281;54.406;18.556;2023-02-28T01:41:39;82.67;;;38.47;;
20245;SDS011;10281;54.406;18.556;2023-02-28T01:44:54;80.13;;;38.17;;
20245;SDS011;10281;54.406;18.556;2023-02-28T01:46:35;72.37;;;36.23;;
20245;SDS011;10281;54.406;18.556;2023-02-28T01:49:06;70.77;;;34.13;;
20245;SDS011;10281;54.406;18.556;2023-02-28T01:51:37;72.10;;;32.33;;
20245;SDS011;10281;54.406;18.556;2023-02-28T01:54:09;60.83;;;29.87;;
20245;SDS011;10281;54.406;18.556;2023-02-28T01:56:37;66.90;;;32.73;;
20245;SDS011;10281;54.406;18.556;2023-02-28T01:59:04;61.00;;;31.20;;
20245;SDS011;10281;54.406;18.556;2023-02-28T02:01:31;56.93;;;28.30;;
20245;SDS011;10281;54.406;18.556;2023-02-28T02:04:00;56.87;;;27.67;;
20245;SDS011;10281;54.406;18.556;2023-02-28T02:06:29;50.87;;;26.93;;
20245;SDS011;10281;54.406;18.556;2023-02-28T02:08:58;58.13;;;28.13;;
20245;SDS011;10281;54.406;18.556;2023-02-28T02:11:25;55.00;;;27.80;;
20245;SDS011;10281;54.406;18.556;2023-02-28T02:14:06;55.87;;;27.90;;
20245;SDS011;10281;54.406;18.556;2023-02-28T02:16:52;55.83;;;28.93;;
20245;SDS011;10281;54.406;18.556;2023-02-28T02:24:48;54.17;;;28.93;;
20245;SDS011;10281;54.406;18.556;2023-02-28T02:27:17;48.93;;;25.30;;
20245;SDS011;10281;54.406;18.556;2023-02-28T02:29:59;55.33;;;28.03;;
20245;SDS011;10281;54.406;18.556;2023-02-28T02:32:30;54.10;;;27.10;;
20245;SDS011;10281;54.406;18.556;2023-02-28T02:35:11;56.03;;;29.13;;
20245;SDS011;10281;54.406;18.556;2023-02-28T02:37:57;57.10;;;28.37;;
20245;SDS011;10281;54.406;18.556;2023-02-28T02:40:34;60.03;;;30.57;;
20245;SDS011;10281;54.406;18.556;2023-02-28T02:43:11;57.00;;;30.10;;
20245;SDS011;10281;54.406;18.556;2023-02-28T02:45:40;66.07;;;30.50;;
20245;SDS011;10281;54.406;18.556;2023-02-28T02:48:12;57.83;;;29.97;;
20245;SDS011;10281;54.406;18.556;2023-02-28T02:50:43;58.20;;;28.90;;
20245;SDS011;10281;54.406;18.556;2023-02-28T02:53:14;57.20;;;28.00;;
20245;SDS011;10281;54.406;18.556;2023-02-28T02:55:44;55.73;;;28.77;;
20245;SDS011;10281;54.406;18.556;2023-02-28T02:58:16;53.97;;;27.97;;
20245;SDS011;10281;54.406;18.556;2023-02-28T03:00:54;58.03;;;28.57;;
20245;SDS011;10281;54.406;18.556;2023-02-28T03:03:18;60.33;;;29.07;;
20245;SDS011;10281;54.406;18.556;2023-02-28T03:05:49;54.60;;;27.57;;
20245;SDS011;10281;54.406;18.556;2023-02-28T03:08:17;49.60;;;27.93;;
20245;SDS011;10281;54.406;18.556;2023-02-28T03:10:45;50.57;;;27.70;;
20245;SDS011;10281;54.406;18.556;2023-02-28T03:13:23;49.00;;;25.37;;
20245;SDS011;10281;54.406;18.556;2023-02-28T03:16:22;40.10;;;21.70;;
20245;SDS011;10281;54.406;18.556;2023-02-28T03:19:02;52.50;;;24.90;;
20245;SDS011;10281;54.406;18.556;2023-02-28T03:21:43;51.07;;;24.13;;
20245;SDS011;10281;54.406;18.556;2023-02-28T03:26:49;41.40;;;21.47;;
20245;SDS011;10281;54.406;18.556;2023-02-28T03:29:22;41.03;;;21.93;;
20245;SDS011;10281;54.406;18.556;2023-02-28T03:31:54;45.73;;;23.63;;
20245;SDS011;10281;54.406;18.556;2023-02-28T03:34:25;50.10;;;25.23;;
20245;SDS011;10281;54.406;18.556;2023-02-28T03:36:55;55.23;;;26.73;;
20245;SDS011;10281;54.406;18.556;2023-02-28T03:39:27;54.23;;;27.33;;
20245;SDS011;10281;54.406;18.556;2023-02-28T03:41:58;46.33;;;26.27;;
20245;SDS011;10281;54.406;18.556;2023-02-28T03:44:32;54.70;;;27.43;;
20245;SDS011;10281;54.406;18.556;2023-02-28T03:47:03;49.47;;;25.07;;
20245;SDS011;10281;54.406;18.556;2023-02-28T03:49:35;51.07;;;25.03;;
20245;SDS011;10281;54.406;18.556;2023-02-28T03:52:04;50.67;;;25.53;;
20245;SDS011;10281;54.406;18.556;2023-02-28T03:54:39;45.80;;;25.30;;
20245;SDS011;10281;54.406;18.556;2023-02-28T03:57:13;51.50;;;26.33;;
20245;SDS011;10281;54.406;18.556;2023-02-28T03:59:59;45.97;;;25.80;;
20245;SDS011;10281;54.406;18.556;2023-02-28T04:02:29;48.20;;;24.97;;
20245;SDS011;10281;54.406;18.556;2023-02-28T04:04:56;49.53;;;24.80;;
20245;SDS011;10281;54.406;18.556;2023-02-28T04:07:23;49.00;;;24.83;;
20245;SDS011;10281;54.406;18.556;2023-02-28T04:09:49;39.40;;;21.87;;
20245;SDS011;10281;54.406;18.556;2023-02-28T04:12:16;41.70;;;20.43;;
20245;SDS011;10281;54.406;18.556;2023-02-28T04:14:42;42.87;;;23.17;;
20245;SDS011;10281;54.406;18.556;2023-02-28T04:17:09;44.73;;;23.00;;
20245;SDS011;10281;54.406;18.556;2023-02-28T04:19:35;39.83;;;21.90;;
20245;SDS011;10281;54.406;18.556;2023-02-28T04:22:02;44.97;;;23.23;;
20245;SDS011;10281;54.406;18.556;2023-02-28T04:24:29;55.83;;;26.10;;
20245;SDS011;10281;54.406;18.556;2023-02-28T04:26:56;42.83;;;22.33;;
20245;SDS011;10281;54.406;18.556;2023-02-28T04:29:25;42.43;;;23.63;;
20245;SDS011;10281;54.406;18.556;2023-02-28T04:31:54;51.50;;;24.10;;
20245;SDS011;10281;54.406;18.556;2023-02-28T04:34:25;45.97;;;24.87;;
20245;SDS011;10281;54.406;18.556;2023-02-28T04:36:54;47.40;;;24.30;;
20245;SDS011;10281;54.406;18.556;2023-02-28T04:39:21;41.67;;;21.37;;
20245;SDS011;10281;54.406;18.556;2023-02-28T04:41:49;40.07;;;22.30;;
20245;SDS011;10281;54.406;18.556;2023-02-28T04:44:17;46.73;;;23.67;;
20245;SDS011;10281;54.406;18.556;2023-02-28T04:46:43;43.70;;;23.43;;
20245;SDS011;10281;54.406;18.556;2023-02-28T04:49:11;45.03;;;22.47;;
20245;SDS011;10281;54.406;18.556;2023-02-28T04:51:39;40.90;;;22.87;;
20245;SDS011;10281;54.406;18.556;2023-02-28T04:54:06;39.83;;;22.03;;
20245;SDS011;10281;54.406;18.556;2023-02-28T04:56:33;42.67;;;22.37;;
20245;SDS011;10281;54.406;18.556;2023-02-28T04:59:00;35.77;;;18.93;;
20245;SDS011;10281;54.406;18.556;2023-02-28T05:01:28;37.23;;;20.03;;
20245;SDS011;10281;54.406;18.556;2023-02-28T05:03:58;36.37;;;20.50;;
20245;SDS011;10281;54.406;18.556;2023-02-28T05:06:28;34.50;;;20.23;;
20245;SDS011;10281;54.406;18.556;2023-02-28T05:08:56;40.13;;;21.27;;
20245;SDS011;10281;54.406;18.556;2023-02-28T05:11:25;35.93;;;18.93;;
20245;SDS011;10281;54.406;18.556;2023-02-28T05:13:54;36.77;;;19.77;;
20245;SDS011;10281;54.406;18.556;2023-02-28T05:16:21;33.43;;;17.90;;
20245;SDS011;10281;54.406;18.556;2023-02-28T05:18:48;34.50;;;18.60;;
20245;SDS011;10281;54.406;18.556;2023-02-28T05:21:22;33.83;;;18.80;;
20245;SDS011;10281;54.406;18.556;2023-02-28T05:23:54;34.27;;;18.93;;
20245;SDS011;10281;54.406;18.556;2023-02-28T05:26:21;35.73;;;17.90;;
20245;SDS011;10281;54.406;18.556;2023-02-28T05:28:48;38.40;;;17.73;;
20245;SDS011;10281;54.406;18.556;2023-02-28T05:31:15;34.17;;;18.57;;
20245;SDS011;10281;54.406;18.556;2023-02-28T05:33:42;35.13;;;19.17;;
20245;SDS011;10281;54.406;18.556;2023-02-28T05:36:08;31.60;;;17.37;;
20245;SDS011;10281;54.406;18.556;2023-02-28T05:38:35;33.97;;;16.63;;
20245;SDS011;10281;54.406;18.556;2023-02-28T05:41:05;33.57;;;17.40;;
20245;SDS011;10281;54.406;18.556;2023-02-28T05:43:33;33.23;;;17.23;;
20245;SDS011;10281;54.406;18.556;2023-02-28T05:46:01;36.60;;;17.57;;
20245;SDS011;10281;54.406;18.556;2023-02-28T05:48:29;31.50;;;17.93;;
20245;SDS011;10281;54.406;18.556;2023-02-28T05:50:57;28.93;;;16.10;;
20245;SDS011;10281;54.406;18.556;2023-02-28T05:53:24;26.67;;;15.40;;
20245;SDS011;10281;54.406;18.556;2023-02-28T05:55:51;28.77;;;16.07;;
20245;SDS011;10281;54.406;18.556;2023-02-28T05:58:18;31.73;;;16.17;;
20245;SDS011;10281;54.406;18.556;2023-02-28T06:00:45;25.23;;;14.60;;
20245;SDS011;10281;54.406;18.556;2023-02-28T06:03:12;28.10;;;16.83;;
20245;SDS011;10281;54.406;18.556;2023-02-28T06:05:39;24.70;;;14.27;;
20245;SDS011;10281;54.406;18.556;2023-02-28T06:08:05;33.80;;;16.03;;
20245;SDS011;10281;54.406;18.556;2023-02-28T06:10:33;29.03;;;15.73;;
20245;SDS011;10281;54.406;18.556;2023-02-28T06:13:01;35.97;;;17.73;;
20245;SDS011;10281;54.406;18.556;2023-02-28T06:15:30;30.33;;;16.57;;
20245;SDS011;10281;54.406;18.556;2023-02-28T06:17:57;29.87;;;16.23;;
20245;SDS011;10281;54.406;18.556;2023-02-28T06:20:25;33.53;;;17.07;;
20245;SDS011;10281;54.406;18.556;2023-02-28T06:22:55;28.37;;;14.00;;
20245;SDS011;10281;54.406;18.556;2023-02-28T06:25:25;23.57;;;13.33;;
20245;SDS011;10281;54.406;18.556;2023-02-28T06:27:51;24.80;;;13.53;;
20245;SDS011;10281;54.406;18.556;2023-02-28T06:30:18;25.10;;;13.93;;
20245;SDS011;10281;54.406;18.556;2023-02-28T06:32:47;21.90;;;11.63;;
20245;SDS011;10281;54.406;18.556;2023-02-28T06:35:15;28.00;;;13.90;;
20245;SDS011;10281;54.406;18.556;2023-02-28T06:37:41;27.67;;;15.13;;
20245;SDS011;10281;54.406;18.556;2023-02-28T06:40:10;31.37;;;16.23;;
20245;SDS011;10281;54.406;18.556;2023-02-28T06:42:38;30.07;;;16.13;;
20245;SDS011;10281;54.406;18.556;2023-02-28T06:45:05;29.07;;;15.53;;
20245;SDS011;10281;54.406;18.556;2023-02-28T06:47:35;28.77;;;14.40;;
20245;SDS011;10281;54.406;18.556;2023-02-28T06:50:03;25.33;;;12.83;;
20245;SDS011;10281;54.406;18.556;2023-02-28T06:52:32;24.73;;;14.40;;
20245;SDS011;10281;54.406;18.556;2023-02-28T06:55:00;24.37;;;12.50;;
20245;SDS011;10281;54.406;18.556;2023-02-28T06:57:28;22.90;;;12.80;;
20245;SDS011;10281;54.406;18.556;2023-02-28T06:59:58;25.10;;;11.73;;
20245;SDS011;10281;54.406;18.556;2023-02-28T07:02:25;19.37;;;11.43;;
20245;SDS011;10281;54.406;18.556;2023-02-28T07:04:53;22.47;;;11.97;;
20245;SDS011;10281;54.406;18.556;2023-02-28T07:07:19;21.50;;;12.37;;
20245;SDS011;10281;54.406;18.556;2023-02-28T07:09:46;20.47;;;12.03;;
20245;SDS011;10281;54.406;18.556;2023-02-28T07:12:13;22.60;;;12.03;;
20245;SDS011;10281;54.406;18.556;2023-02-28T07:14:40;20.40;;;12.27;;
20245;SDS011;10281;54.406;18.556;2023-02-28T07:17:07;23.93;;;12.03;;
20245;SDS011;10281;54.406;18.556;2023-02-28T07:19:36;27.07;;;13.30;;
20245;SDS011;10281;54.406;18.556;2023-02-28T07:22:02;20.23;;;11.80;;
20245;SDS011;10281;54.406;18.556;2023-02-28T07:24:29;21.20;;;11.37;;
20245;SDS011;10281;54.406;18.556;2023-02-28T07:26:57;20.03;;;10.57;;
20245;SDS011;10281;54.406;18.556;2023-02-28T07:29:23;21.73;;;10.47;;
20245;SDS011;10281;54.406;18.556;2023-02-28T07:31:49;17.57;;;10.13;;
20245;SDS011;10281;54.406;18.556;2023-02-28T07:34:18;16.90;;;9.83;;
20245;SDS011;10281;54.406;18.556;2023-02-28T07:36:46;16.80;;;10.00;;
20245;SDS011;10281;54.406;18.556;2023-02-28T07:39:13;17.30;;;9.87;;
20245;SDS011;10281;54.406;18.556;2023-02-28T07:41:39;18.23;;;9.60;;
20245;SDS011;10281;54.406;18.556;2023-02-28T07:44:09;20.07;;;10.20;;
20245;SDS011;10281;54.406;18.556;2023-02-28T07:46:37;15.93;;;8.67;;
20245;SDS011;10281;54.406;18.556;2023-02-28T07:49:04;15.87;;;8.73;;
20245;SDS011;10281;54.406;18.556;2023-02-28T07:51:32;12.77;;;8.30;;
20245;SDS011;10281;54.406;18.556;2023-02-28T07:53:59;13.57;;;8.80;;
20245;SDS011;10281;54.406;18.556;2023-02-28T07:56:25;16.13;;;8.47;;
20245;SDS011;10281;54.406;18.556;2023-02-28T07:58:52;16.10;;;8.87;;
20245;SDS011;10281;54.406;18.556;2023-02-28T08:01:19;13.73;;;8.70;;
20245;SDS011;10281;54.406;18.556;2023-02-28T08:03:45;13.20;;;7.80;;
20245;SDS011;10281;54.406;18.556;2023-02-28T08:06:17;19.37;;;8.37;;
20245;SDS011;10281;54.406;18.556;2023-02-28T08:08:46;14.67;;;8.03;;
20245;SDS011;10281;54.406;18.556;2023-02-28T08:11:14;15.90;;;8.70;;
20245;SDS011;10281;54.406;18.556;2023-02-28T08:13:41;15.20;;;9.03;;
20245;SDS011;10281;54.406;18.556;2023-02-28T08:16:09;20.03;;;10.33;;
20245;SDS011;10281;54.406;18.556;2023-02-28T08:18:39;15.20;;;9.77;;
20245;SDS011;10281;54.406;18.556;2023-02-28T08:21:07;18.07;;;11.20;;
20245;SDS011;10281;54.406;18.556;2023-02-28T08:23:34;42.63;;;32.47;;
20245;SDS011;10281;54.406;18.556;2023-02-28T08:26:02;119.20;;;50.90;;
20245;SDS011;10281;54.406;18.556;2023-02-28T08:28:30;38.27;;;17.53;;
20245;SDS011;10281;54.406;18.556;2023-02-28T08:30:56;133.23;;;47.20;;
20245;SDS011;10281;54.406;18.556;2023-02-28T08:33:24;38.73;;;18.40;;
20245;SDS011;10281;54.406;18.556;2023-02-28T08:35:54;91.60;;;33.33;;
20245;SDS011;10281;54.406;18.556;2023-02-28T08:38:21;58.93;;;23.70;;
20245;SDS011;10281;54.406;18.556;2023-02-28T08:40:49;38.57;;;18.60;;
20245;SDS011;10281;54.406;18.556;2023-02-28T08:43:18;41.27;;;19.03;;
20245;SDS011;10281;54.406;18.556;2023-02-28T08:45:44;30.70;;;16.10;;
20245;SDS011;10281;54.406;18.556;2023-02-28T08:48:11;24.23;;;13.23;;
20245;SDS011;10281;54.406;18.556;2023-02-28T08:50:39;35.67;;;17.50;;
20245;SDS011;10281;54.406;18.556;2023-02-28T08:53:05;41.73;;;21.87;;
20245;SDS011;10281;54.406;18.556;2023-02-28T08:55:32;26.13;;;15.43;;
20245;SDS011;10281;54.406;18.556;2023-02-28T08:57:59;22.93;;;13.77;;
20245;SDS011;10281;54.406;18.556;2023-02-28T09:00:26;18.43;;;10.50;;
20245;SDS011;10281;54.406;18.556;2023-02-28T09:02:53;17.80;;;10.20;;
20245;SDS011;10281;54.406;18.556;2023-02-28T09:05:20;16.40;;;9.10;;
20245;SDS011;10281;54.406;18.556;2023-02-28T09:07:46;13.67;;;8.70;;
20245;SDS011;10281;54.406;18.556;2023-02-28T09:10:13;16.90;;;8.43;;
20245;SDS011;10281;54.406;18.556;2023-02-28T09:12:40;17.27;;;8.40;;
20245;SDS011;10281;54.406;18.556;2023-02-28T09:15:07;14.33;;;8.30;;
20245;SDS011;10281;54.406;18.556;2023-02-28T09:17:35;16.00;;;8.50;;
20245;SDS011;10281;54.406;18.556;2023-02-28T09:20:02;15.40;;;8.50;;
20245;SDS011;10281;54.406;18.556;2023-02-28T09:22:29;14.70;;;8.37;;
20245;SDS011;10281;54.406;18.556;2023-02-28T09:24:55;14.83;;;8.37;;
20245;SDS011;10281;54.406;18.556;2023-02-28T09:27:22;13.97;;;7.53;;
20245;SDS011;10281;54.406;18.556;2023-02-28T09:29:48;14.63;;;7.47;;
20245;SDS011;10281;54.406;18.556;2023-02-28T09:32:15;15.83;;;7.60;;
20245;SDS011;10281;54.406;18.556;2023-02-28T09:34:43;12.90;;;7.83;;
20245;SDS011;10281;54.406;18.556;2023-02-28T09:37:10;13.23;;;8.30;;
20245;SDS011;10281;54.406;18.556;2023-02-28T09:39:36;13.40;;;7.17;;
20245;SDS011;10281;54.406;18.556;2023-02-28T09:42:03;12.33;;;6.63;;
20245;SDS011;10281;54.406;18.556;2023-02-28T09:44:35;9.27;;;6.00;;
20245;SDS011;10281;54.406;18.556;2023-02-28T09:47:07;10.60;;;5.70;;
20245;SDS011;10281;54.406;18.556;2023-02-28T09:49:39;10.80;;;5.53;;
20245;SDS011;10281;54.406;18.556;2023-02-28T09:52:10;10.43;;;5.17;;
20245;SDS011;10281;54.406;18.556;2023-02-28T09:54:40;7.83;;;3.83;;
20245;SDS011;10281;54.406;18.556;2023-02-28T09:57:10;7.43;;;4.30;;
20245;SDS011;10281;54.406;18.556;2023-02-28T10:00:02;8.80;;;4.17;;
20245;SDS011;10281;54.406;18.556;2023-02-28T10:05:13;7.90;;;3.60;;
20245;SDS011;10281;54.406;18.556;2023-02-28T10:10:39;7.57;;;4.17;;
20245;SDS011;10281;54.406;18.556;2023-02-28T10:13:15;7.33;;;4.40;;
20245;SDS011;10281;54.406;18.556;2023-02-28T10:15:49;11.57;;;5.57;;
20245;SDS011;10281;54.406;18.556;2023-02-28T10:18:23;6.40;;;3.60;;
20245;SDS011;10281;54.406;18.556;2023-02-28T10:20:52;5.30;;;2.93;;
20245;SDS011;10281;54.406;18.556;2023-02-28T10:23:28;7.57;;;2.97;;
20245;SDS011;10281;54.406;18.556;2023-02-28T10:26:03;6.17;;;3.13;;
20245;SDS011;10281;54.406;18.556;2023-02-28T10:28:35;4.00;;;2.60;;
20245;SDS011;10281;54.406;18.556;2023-02-28T10:31:02;7.07;;;3.60;;
20245;SDS011;10281;54.406;18.556;2023-02-28T10:33:32;6.90;;;3.77;;
20245;SDS011;10281;54.406;18.556;2023-02-28T10:36:01;5.10;;;3.63;;
20245;SDS011;10281;54.406;18.556;2023-02-28T10:38:33;6.73;;;3.37;;
20245;SDS011;10281;54.406;18.556;2023-02-28T10:41:07;8.20;;;3.30;;
20245;SDS011;10281;54.406;18.556;2023-02-28T10:43:37;7.23;;;3.30;;
20245;SDS011;10281;54.406;18.556;2023-02-28T10:46:16;6.73;;;3.87;;
20245;SDS011;10281;54.406;18.556;2023-02-28T10:49:11;6.27;;;3.80;;
20245;SDS011;10281;54.406;18.556;2023-02-28T10:51:39;6.23;;;3.70;;
20245;SDS011;10281;54.406;18.556;2023-02-28T10:54:14;6.53;;;3.50;;
20245;SDS011;10281;54.406;18.556;2023-02-28T10:56:44;5.93;;;3.50;;
20245;SDS011;10281;54.406;18.556;2023-02-28T10:59:27;5.70;;;3.47;;
20245;SDS011;10281;54.406;18.556;2023-02-28T11:01:56;4.90;;;3.27;;
20245;SDS011;10281;54.406;18.556;2023-02-28T11:04:35;5.43;;;3.07;;
20245;SDS011;10281;54.406;18.556;2023-02-28T11:07:22;3.43;;;2.60;;
20245;SDS011;10281;54.406;18.556;2023-02-28T11:09:52;4.03;;;2.53;;
20245;SDS011;10281;54.406;18.556;2023-02-28T11:12:23;5.13;;;2.97;;
20245;SDS011;10281;54.406;18.556;2023-02-28T11:14:55;4.87;;;2.77;;
20245;SDS011;10281;54.406;18.556;2023-02-28T11:17:24;6.47;;;3.37;;
20245;SDS011;10281;54.406;18.556;2023-02-28T11:19:55;4.43;;;2.77;;
20245;SDS011;10281;54.406;18.556;2023-02-28T11:22:25;5.40;;;2.80;;
20245;SDS011;10281;54.406;18.556;2023-02-28T11:24:56;4.60;;;2.57;;
20245;SDS011;10281;54.406;18.556;2023-02-28T11:27:40;3.10;;;2.40;;
20245;SDS011;10281;54.406;18.556;2023-02-28T11:30:29;5.97;;;2.80;;
20245;SDS011;10281;54.406;18.556;2023-02-28T11:35:46;5.40;;;3.13;;
20245;SDS011;10281;54.406;18.556;2023-02-28T11:38:15;5.07;;;3.07;;
20245;SDS011;10281;54.406;18.556;2023-02-28T11:40:43;4.63;;;2.67;;
20245;SDS011;10281;54.406;18.556;2023-02-28T11:43:25;5.23;;;2.80;;
20245;SDS011;10281;54.406;18.556;2023-02-28T11:46:04;5.60;;;3.23;;
20245;SDS011;10281;54.406;18.556;2023-02-28T11:48:47;13.03;;;7.13;;
20245;SDS011;10281;54.406;18.556;2023-02-28T11:51:21;17.80;;;12.83;;
20245;SDS011;10281;54.406;18.556;2023-02-28T11:56:30;6.57;;;3.83;;
20245;SDS011;10281;54.406;18.556;2023-02-28T11:59:02;8.23;;;4.20;;
20245;SDS011;10281;54.406;18.556;2023-02-28T12:02:06;6.57;;;3.97;;
20245;SDS011;10281;54.406;18.556;2023-02-28T12:04:33;5.87;;;3.37;;
20245;SDS011;10281;54.406;18.556;2023-02-28T12:07:21;5.77;;;3.20;;
20245;SDS011;10281;54.406;18.556;2023-02-28T12:10:02;5.90;;;2.80;;
20245;SDS011;10281;54.406;18.556;2023-02-28T12:12:39;6.17;;;3.40;;
20245;SDS011;10281;54.406;18.556;2023-02-28T12:15:32;4.93;;;3.10;;
20245;SDS011;10281;54.406;18.556;2023-02-28T12:18:02;6.23;;;3.47;;
20245;SDS011;10281;54.406;18.556;2023-02-28T12:20:40;4.77;;;3.07;;
20245;SDS011;10281;54.406;18.556;2023-02-28T12:23:10;5.17;;;3.30;;
20245;SDS011;10281;54.406;18.556;2023-02-28T12:25:39;5.60;;;3.00;;
20245;SDS011;10281;54.406;18.556;2023-02-28T12:28:10;4.60;;;2.80;;
20245;SDS011;10281;54.406;18.556;2023-02-28T12:30:46;5.13;;;3.03;;
20245;SDS011;10281;54.406;18.556;2023-02-28T12:33:14;3.77;;;2.93;;
20245;SDS011;10281;54.406;18.556;2023-02-28T12:35:51;4.67;;;2.87;;
20245;SDS011;10281;54.406;18.556;2023-02-28T12:38:22;3.80;;;2.47;;
20245;SDS011;10281;54.406;18.556;2023-02-28T12:40:53;4.47;;;2.53;;
20245;SDS011;10281;54.406;18.556;2023-02-28T12:43:25;4.00;;;2.50;;
20245;SDS011;10281;54.406;18.556;2023-02-28T12:46:02;4.57;;;2.57;;
20245;SDS011;10281;54.406;18.556;2023-02-28T12:48:48;4.53;;;2.50;;
20245;SDS011;10281;54.406;18.556;2023-02-28T12:51:18;4.00;;;2.40;;
20245;SDS011;10281;54.406;18.556;2023-02-28T12:53:53;2.97;;;2.40;;
20245;SDS011;10281;54.406;18.556;2023-02-28T12:56:27;6.97;;;3.30;;
20245;SDS011;10281;54.406;18.556;2023-02-28T12:59:14;4.77;;;2.60;;
20245;SDS011;10281;54.406;18.556;2023-02-28T13:01:51;5.27;;;2.93;;
20245;SDS011;10281;54.406;18.556;2023-02-28T13:04:40;5.27;;;2.93;;
20245;SDS011;10281;54.406;18.556;2023-02-28T13:07:24;4.70;;;2.47;;
20245;SDS011;10281;54.406;18.556;2023-02-28T13:10:00;3.30;;;2.27;;
20245;SDS011;10281;54.406;18.556;2023-02-28T13:12:29;3.60;;;2.23;;
20245;SDS011;10281;54.406;18.556;2023-02-28T13:15:04;3.27;;;2.27;;
20245;SDS011;10281;54.406;18.556;2023-02-28T13:17:38;5.43;;;2.23;;
20245;SDS011;10281;54.406;18.556;2023-02-28T13:20:25;4.43;;;2.50;;
20245;SDS011;10281;54.406;18.556;2023-02-28T13:22:54;3.80;;;2.50;;
20245;SDS011;10281;54.406;18.556;2023-02-28T13:31:27;5.43;;;2.30;;
20245;SDS011;10281;54.406;18.556;2023-02-28T13:36:40;5.03;;;2.50;;
20245;SDS011;10281;54.406;18.556;2023-02-28T13:41:59;5.47;;;3.10;;
20245;SDS011;10281;54.406;18.556;2023-02-28T13:44:29;3.83;;;2.70;;
20245;SDS011;10281;54.406;18.556;2023-02-28T13:49:41;4.73;;;2.97;;
20245;SDS011;10281;54.406;18.556;2023-02-28T13:52:14;5.20;;;3.23;;
20245;SDS011;10281;54.406;18.556;2023-02-28T13:54:51;6.60;;;4.10;;
20245;SDS011;10281;54.406;18.556;2023-02-28T14:00:04;8.07;;;5.13;;
20245;SDS011;10281;54.406;18.556;2023-02-28T14:02:48;10.03;;;6.00;;
20245;SDS011;10281;54.406;18.556;2023-02-28T14:05:22;8.50;;;6.50;;
20245;SDS011;10281;54.406;18.556;2023-02-28T14:07:53;16.33;;;14.67;;
20245;SDS011;10281;54.406;18.556;2023-02-28T14:10:24;8.23;;;4.67;;
20245;SDS011;10281;54.406;18.556;2023-02-28T14:12:59;8.23;;;6.00;;
20245;SDS011;10281;54.406;18.556;2023-02-28T14:15:36;8.03;;;4.50;;
20245;SDS011;10281;54.406;18.556;2023-02-28T14:18:02;9.47;;;7.10;;
20245;SDS011;10281;54.406;18.556;2023-02-28T14:20:32;7.97;;;5.27;;
20245;SDS011;10281;54.406;18.556;2023-02-28T14:23:06;13.77;;;8.33;;
20245;SDS011;10281;54.406;18.556;2023-02-28T14:25:40;8.40;;;5.07;;
20245;SDS011;10281;54.406;18.556;2023-02-28T14:29:23;8.40;;;4.30;;
20245;SDS011;10281;54.406;18.556;2023-02-28T14:31:18;8.40;;;6.00;;
20245;SDS011;10281;54.406;18.556;2023-02-28T14:33:57;8.27;;;4.70;;
20245;SDS011;10281;54.406;18.556;2023-02-28T14:36:25;8.47;;;5.70;;
20245;SDS011;10281;54.406;18.556;2023-02-28T14:38:53;15.83;;;10.33;;
20245;SDS011;10281;54.406;18.556;2023-02-28T14:41:22;28.93;;;17.23;;
20245;SDS011;10281;54.406;18.556;2023-02-28T14:43:52;28.83;;;18.03;;
20245;SDS011;10281;54.406;18.556;2023-02-28T14:46:21;18.53;;;11.63;;
20245;SDS011;10281;54.406;18.556;2023-02-28T14:48:51;14.90;;;11.93;;
20245;SDS011;10281;54.406;18.556;2023-02-28T14:51:18;9.97;;;6.47;;
20245;SDS011;10281;54.406;18.556;2023-02-28T14:53:50;6.90;;;4.00;;
20245;SDS011;10281;54.406;18.556;2023-02-28T14:56:24;5.37;;;4.00;;
20245;SDS011;10281;54.406;18.556;2023-02-28T14:58:54;6.30;;;3.40;;
20245;SDS011;10281;54.406;18.556;2023-02-28T15:01:22;8.60;;;4.00;;
20245;SDS011;10281;54.406;18.556;2023-02-28T15:04:00;6.03;;;3.90;;
20245;SDS011;10281;54.406;18.556;2023-02-28T15:06:29;6.27;;;3.67;;
20245;SDS011;10281;54.406;18.556;2023-02-28T15:09:09;7.83;;;4.30;;
20245;SDS011;10281;54.406;18.556;2023-02-28T15:11:45;5.90;;;4.23;;
20245;SDS011;10281;54.406;18.556;2023-02-28T15:14:17;6.00;;;3.70;;